createdAt,value
2022-11-29T00:01:59.894Z,3.55
2022-11-29T00:07:01.481Z,3.50
2022-11-29T00:12:12.128Z,3.56
2022-11-29T00:17:13.570Z,3.54
2022-11-29T00:22:15.093Z,3.54
2022-11-29T00:27:16.793Z,3.56
2022-11-29T00:32:18.349Z,3.49
2022-11-29T00:37:19.852Z,3.52
2022-11-29T00:42:21.420Z,3.48
2022-11-29T00:47:23.105Z,3.58
2022-11-29T00:52:24.616Z,3.53
2022-11-29T00:57:26.057Z,3.55
2022-11-29T01:02:27.622Z,3.54
2022-11-29T01:07:29.196Z,3.54
2022-11-29T01:12:30.820Z,3.51
2022-11-29T01:17:35.418Z,3.51
2022-11-29T01:22:38.262Z,3.44
2022-11-29T01:27:39.889Z,3.43
2022-11-29T01:32:41.402Z,3.45
2022-11-29T01:37:42.888Z,3.50
2022-11-29T01:42:44.567Z,3.49
2022-11-29T01:47:47.660Z,3.44
2022-11-29T01:52:49.485Z,3.47
2022-11-29T01:57:51.551Z,3.40
2022-11-29T02:02:59.187Z,3.43
2022-11-29T02:08:02.049Z,3.44
2022-11-29T02:13:32.595Z,3.44
2022-11-29T02:18:36.766Z,3.42
2022-11-29T02:23:50.299Z,3.47
2022-11-29T02:29:11.013Z,3.41
2022-11-29T02:34:46.847Z,3.44
2022-11-29T02:40:10.021Z,3.41
2022-11-29T02:45:20.574Z,3.42
2022-11-29T02:50:25.069Z,3.40
2022-11-29T02:55:57.489Z,3.42
2022-11-29T03:01:11.545Z,3.34
2022-11-29T03:06:40.748Z,3.41
2022-11-29T03:11:51.940Z,3.31
2022-11-29T03:17:32.645Z,3.29
2022-11-29T03:22:54.886Z,3.28
2022-11-29T03:28:14.701Z,3.24
2022-11-29T03:33:27.537Z,3.25
2022-11-29T03:38:41.169Z,3.25
2022-11-29T03:43:53.194Z,3.21
2022-11-29T03:49:02.541Z,3.19
2022-11-29T03:54:10.772Z,3.20
2022-11-29T03:59:14.953Z,3.19
2022-11-29T04:04:31.475Z,3.21
2022-11-29T04:10:09.776Z,3.21
2022-11-29T04:15:33.628Z,3.23
2022-11-29T04:21:03.090Z,3.21
2022-11-29T04:26:42.480Z,3.18
2022-11-29T04:32:02.748Z,3.19
2022-11-29T04:37:35.392Z,3.19
2022-11-29T04:42:53.497Z,3.18
2022-11-29T04:48:09.911Z,3.17
2022-11-29T04:53:11.321Z,3.18
2022-11-29T04:58:21.542Z,3.16
2022-11-29T05:03:53.828Z,3.15
2022-11-29T05:09:15.729Z,3.17
2022-11-29T05:14:43.625Z,3.26
2022-11-29T05:19:51.336Z,3.26
2022-11-29T05:24:58.990Z,3.21
2022-11-29T05:30:03.730Z,3.20
2022-11-29T05:35:26.192Z,3.14
2022-11-29T05:40:39.521Z,3.15
2022-11-29T05:45:50.369Z,3.18
2022-11-29T05:51:09.746Z,3.17
2022-11-29T05:56:39.009Z,3.21
2022-11-29T06:02:05.897Z,3.16
2022-11-29T06:07:19.167Z,3.16
2022-11-29T06:12:23.317Z,3.18
2022-11-29T06:17:38.745Z,3.14
2022-11-29T06:22:55.921Z,3.22
2022-11-29T06:28:09.529Z,3.19
2022-11-29T06:33:22.652Z,3.22
2022-11-29T06:38:30.137Z,3.20
2022-11-29T06:43:31.987Z,3.24
2022-11-29T06:48:41.589Z,3.26
2022-11-29T06:54:10.766Z,3.27
2022-11-29T06:59:22.177Z,3.25
2022-11-29T07:04:46.412Z,3.21
2022-11-29T07:09:53.102Z,3.20
2022-11-29T07:14:54.934Z,3.19
2022-11-29T07:20:10.531Z,3.20
2022-11-29T07:25:17.922Z,3.17
2022-11-29T07:30:22.581Z,3.20
2022-11-29T07:35:32.353Z,3.20
2022-11-29T07:40:40.293Z,3.23
2022-11-29T07:45:42.295Z,3.28
2022-11-29T07:50:45.220Z,3.25
2022-11-29T07:55:48.500Z,3.26
2022-11-29T08:00:50.057Z,3.22
2022-11-29T08:05:51.595Z,3.31
2022-11-29T08:10:53.093Z,3.33
2022-11-29T08:15:54.587Z,3.36
2022-11-29T08:20:56.061Z,3.38
2022-11-29T08:26:01.664Z,3.40
2022-11-29T08:31:06.040Z,3.39
2022-11-29T08:36:16.592Z,3.46
2022-11-29T08:41:18.113Z,3.48
2022-11-29T08:46:19.678Z,3.56
2022-11-29T08:51:21.209Z,3.52
2022-11-29T09:01:44.241Z,3.63
2022-11-29T09:06:49.147Z,3.73
2022-11-29T09:11:50.963Z,3.76
2022-11-29T09:16:52.631Z,3.84
2022-11-29T09:21:54.340Z,3.96
2022-11-29T09:26:55.790Z,3.97
2022-11-29T09:31:57.336Z,3.99
2022-11-29T09:36:59.205Z,4.01
2022-11-29T09:42:09.777Z,4.13
2022-11-29T09:47:31.197Z,4.19
2022-11-29T09:53:05.664Z,4.24
2022-11-29T09:58:13.506Z,4.20
2022-11-29T10:03:29.350Z,4.33
2022-11-29T10:08:36.609Z,4.33
2022-11-29T10:13:44.997Z,4.37
2022-11-29T10:18:51.874Z,4.37
2022-11-29T10:23:57.649Z,4.36
2022-11-29T10:28:59.652Z,4.39
2022-11-29T10:34:07.877Z,4.29
2022-11-29T10:39:20.866Z,4.28
2022-11-29T10:44:24.004Z,4.34
2022-11-29T10:49:28.180Z,4.30
2022-11-29T10:54:41.623Z,4.31
2022-11-29T10:59:58.952Z,4.40
2022-11-29T11:05:01.241Z,4.40
2022-11-29T11:10:21.947Z,4.44
2022-11-29T11:15:29.025Z,4.48
2022-11-29T11:20:33.550Z,4.43
2022-11-29T11:25:38.895Z,4.39
2022-11-29T11:30:40.590Z,4.52
2022-11-29T11:35:42.134Z,4.58
2022-11-29T11:40:44.733Z,4.66
2022-11-29T11:45:53.512Z,4.75
2022-11-29T11:50:58.256Z,4.88
2022-11-29T11:56:10.335Z,4.89
2022-11-29T12:01:11.741Z,4.93
2022-11-29T12:06:38.471Z,5.03
2022-11-29T12:12:00.135Z,4.95
2022-11-29T12:17:32.345Z,4.88
2022-11-29T12:23:07.993Z,4.92
2022-11-29T12:28:19.869Z,4.88
2022-11-29T12:33:31.317Z,4.96
2022-11-29T12:38:59.256Z,4.98
2022-11-29T12:44:29.471Z,5.03
2022-11-29T12:49:45.277Z,5.01
2022-11-29T12:55:13.202Z,4.98
2022-11-29T13:00:20.084Z,4.95
2022-11-29T13:05:56.565Z,4.94
2022-11-29T13:11:08.301Z,4.87
2022-11-29T13:16:47.116Z,4.87
2022-11-29T13:22:02.872Z,4.82
2022-11-29T13:27:06.479Z,4.79
2022-11-29T13:32:15.742Z,4.69
2022-11-29T13:37:33.520Z,4.62
2022-11-29T13:42:52.294Z,4.65
2022-11-29T13:47:55.675Z,4.59
2022-11-29T13:53:11.640Z,4.54
2022-11-29T13:58:17.942Z,4.47
2022-11-29T14:03:28.460Z,4.48
2022-11-29T14:09:16.631Z,4.49
2022-11-29T14:14:25.771Z,4.42
2022-11-29T14:19:35.818Z,4.46
2022-11-29T14:24:37.742Z,4.39
2022-11-29T14:29:53.513Z,4.38
2022-11-29T14:35:04.215Z,4.32
2022-11-29T14:40:26.312Z,4.36
2022-11-29T14:45:35.051Z,4.22
2022-11-29T14:50:39.094Z,4.27
2022-11-29T14:55:42.890Z,4.25
2022-11-29T15:00:47.119Z,4.24
2022-11-29T15:05:56.469Z,4.28
2022-11-29T15:11:04.099Z,4.15
2022-11-29T15:16:22.901Z,4.18
2022-11-29T15:21:45.770Z,4.13
2022-11-29T15:27:02.272Z,4.07
2022-11-29T15:32:05.612Z,4.12
2022-11-29T15:37:13.828Z,4.08
2022-11-29T15:42:15.895Z,4.04
2022-11-29T15:47:26.655Z,4.04
2022-11-29T15:52:37.047Z,4.08
2022-11-29T15:57:43.106Z,4.07
2022-11-29T16:02:54.312Z,4.00
2022-11-29T16:08:00.369Z,4.05
2022-11-29T16:13:25.356Z,4.10
2022-11-29T16:18:27.924Z,3.97
2022-11-29T16:23:37.586Z,4.04
2022-11-29T16:28:44.757Z,3.99
2022-11-29T16:33:49.156Z,4.02
2022-11-29T16:38:59.410Z,3.96
2022-11-29T16:44:03.505Z,3.99
2022-11-29T16:49:32.704Z,4.03
2022-11-29T16:54:34.360Z,3.96
2022-11-29T16:59:38.608Z,3.94
2022-11-29T17:04:40.685Z,3.96
2022-11-29T17:09:42.152Z,3.99
2022-11-29T17:14:43.959Z,3.97
2022-11-29T17:19:45.805Z,4.04
2022-11-29T17:24:48.472Z,3.97
2022-11-29T17:29:50.241Z,3.98
2022-11-29T17:34:51.822Z,3.99
2022-11-29T17:39:53.319Z,4.04
2022-11-29T17:44:54.851Z,4.00
2022-11-29T17:49:56.373Z,4.00
2022-11-29T17:54:58.002Z,3.97
2022-11-29T17:59:59.515Z,3.94
2022-11-29T18:05:01.081Z,3.96
2022-11-29T18:10:02.571Z,3.94
2022-11-29T18:15:04.320Z,3.91
2022-11-29T18:20:06.521Z,3.91
2022-11-29T18:25:37.191Z,3.87
2022-11-29T18:30:29.822Z,3.84
2022-11-29T18:35:31.368Z,3.88
2022-11-29T18:40:32.846Z,3.84
2022-11-29T18:45:36.205Z,3.94
2022-11-29T18:50:37.775Z,3.92
2022-11-29T18:55:39.272Z,3.94
2022-11-29T19:00:40.829Z,3.91
2022-11-29T19:05:50.565Z,3.89
2022-11-29T19:10:52.082Z,3.89
2022-11-29T19:15:54.883Z,3.90
2022-11-29T19:21:08.433Z,3.87
2022-11-29T19:26:15.080Z,3.88
2022-11-29T19:31:18.675Z,3.86
2022-11-29T19:36:23.114Z,3.87
2022-11-29T19:41:30.080Z,3.87
2022-11-29T19:46:34.066Z,3.83
2022-11-29T19:51:36.191Z,3.84
2022-11-29T19:56:38.864Z,3.83
2022-11-29T20:01:42.339Z,3.85
2022-11-29T20:06:44.471Z,3.86
2022-11-29T20:11:45.945Z,3.85
2022-11-29T20:16:47.501Z,3.86
2022-11-29T20:21:49.217Z,3.87
2022-11-29T20:26:51.164Z,3.86
2022-11-29T20:31:52.864Z,3.88
2022-11-29T20:37:07.400Z,3.87
2022-11-29T20:42:27.836Z,3.87
2022-11-29T20:47:40.978Z,3.87
2022-11-29T20:52:49.381Z,3.90
2022-11-29T20:57:51.037Z,3.89
2022-11-29T21:02:52.576Z,3.89
2022-11-29T21:07:54.296Z,3.89
2022-11-29T21:12:56.076Z,3.89
2022-11-29T21:17:57.978Z,3.90
2022-11-29T21:23:21.097Z,3.89
2022-11-29T21:28:28.005Z,3.83
2022-11-29T21:33:29.818Z,3.91
2022-11-29T21:38:31.632Z,3.87
2022-11-29T21:44:04.271Z,3.83
2022-11-29T21:48:54.525Z,3.84
2022-11-29T21:53:55.981Z,3.83
2022-11-29T21:58:57.457Z,3.89
2022-11-29T22:03:59.668Z,3.89
2022-11-29T22:09:01.217Z,4.00
2022-11-29T22:14:14.278Z,3.96
2022-11-29T22:19:21.733Z,3.87
2022-11-29T22:24:25.512Z,3.87
2022-11-29T22:29:27.414Z,3.82
2022-11-29T22:34:29.047Z,3.84
2022-11-29T22:39:30.505Z,3.96
2022-11-29T22:44:31.991Z,3.87
2022-11-29T22:49:34.323Z,3.81
2022-11-29T22:54:35.764Z,3.78
2022-11-29T22:59:37.254Z,3.82
2022-11-29T23:04:38.710Z,3.77
2022-11-29T23:09:40.184Z,3.82
2022-11-29T23:14:41.681Z,3.87
2022-11-29T23:19:43.112Z,3.81
2022-11-29T23:24:44.679Z,3.83
2022-11-29T23:29:46.397Z,3.80
2022-11-29T23:34:48.115Z,3.84
2022-11-29T23:39:49.755Z,3.82
2022-11-29T23:44:51.210Z,3.84
2022-11-29T23:49:52.681Z,3.79
2022-11-29T23:54:54.244Z,3.76
2022-11-29T23:59:56.553Z,3.79
